Time;durP1;ratioP1;P1;durP2;ratioP2;P2;SDS_P1;SDS_P2;PMS_P1;PMS_P2;Temp;Humidity;BMP_temperature;BMP_pressure;BME280_temperature;BME280_humidity;BME280_pressure;Samples;Min_cycle;Max_cycle;Signal;HPM_P1;HPM_P2
2022/09/18 00:00:54;;;;;;;9.93;1.10;;;9.60;99.90;;;;;;5040582;28;20401;-71
2022/09/18 00:03:20;;;;;;;10.02;1.02;;;9.70;99.90;;;;;;5021271;28;20045;-70
2022/09/18 00:05:46;;;;;;;8.85;1.13;;;9.70;99.90;;;;;;5025032;28;20700;-71
2022/09/18 00:08:12;;;;;;;6.97;1.15;;;9.60;99.90;;;;;;5014383;28;20045;-71
2022/09/18 00:10:45;;;;;;;9.55;1.60;;;9.60;99.90;;;;;;5017069;28;20473;-71
2022/09/18 00:13:12;;;;;;;10.68;1.30;;;9.70;99.90;;;;;;5008873;28;20137;-70
2022/09/18 00:15:38;;;;;;;14.25;1.33;;;9.60;99.90;;;;;;5019351;28;20057;-70
2022/09/18 00:18:05;;;;;;;12.90;1.30;;;9.70;99.90;;;;;;5032946;28;20050;-71
2022/09/18 00:20:35;;;;;;;9.15;1.60;;;9.70;99.90;;;;;;5018374;28;20038;-71
2022/09/18 00:23:01;;;;;;;6.32;0.90;;;9.70;99.90;;;;;;5038737;28;20037;-71
2022/09/18 00:25:28;;;;;;;4.78;1.17;;;9.70;99.90;;;;;;5022736;28;20566;-70
2022/09/18 00:27:54;;;;;;;10.05;1.75;;;9.70;99.90;;;;;;5019267;28;20049;-71
2022/09/18 00:30:19;;;;;;;9.25;1.60;;;9.80;99.90;;;;;;5007281;28;20044;-71
2022/09/18 00:32:45;;;;;;;7.45;1.05;;;9.70;99.90;;;;;;5025220;28;20498;-71
2022/09/18 00:35:11;;;;;;;11.07;1.25;;;9.80;99.90;;;;;;5051724;28;20052;-71
2022/09/18 00:37:36;;;;;;;12.20;1.30;;;9.80;99.90;;;;;;5025111;28;20450;-71
2022/09/18 00:40:03;;;;;;;10.43;1.15;;;9.80;99.90;;;;;;5026163;28;20466;-71
2022/09/18 00:42:28;;;;;;;8.70;1.20;;;9.80;99.90;;;;;;5008072;28;20056;-71
2022/09/18 00:44:54;;;;;;;8.18;1.60;;;9.80;99.90;;;;;;5027812;28;20046;-71
2022/09/18 00:47:29;;;;;;;10.57;1.40;;;9.90;99.90;;;;;;5029306;28;20072;-70
2022/09/18 00:50:11;;;;;;;7.38;1.10;;;10.10;99.90;;;;;;5022631;28;20471;-71
2022/09/18 00:52:51;;;;;;;8.13;1.15;;;9.80;99.90;;;;;;5025115;28;20052;-71
2022/09/18 00:55:22;;;;;;;7.28;0.95;;;9.80;99.90;;;;;;5026085;28;20607;-71
2022/09/18 00:57:54;;;;;;;8.90;1.38;;;9.80;99.90;;;;;;5025002;28;20087;-71
2022/09/18 01:00:21;;;;;;;4.50;0.90;;;9.80;99.90;;;;;;5026727;28;20049;-71
2022/09/18 01:02:47;;;;;;;7.57;0.95;;;9.80;99.90;;;;;;5022258;28;20045;-71
2022/09/18 01:05:22;;;;;;;9.93;1.30;;;9.80;99.90;;;;;;5010058;28;20045;-71
2022/09/18 01:07:57;;;;;;;9.88;1.15;;;9.80;99.90;;;;;;5025829;28;20053;-71
2022/09/18 01:10:51;;;;;;;12.45;1.45;;;9.80;99.90;;;;;;5056438;28;20041;-71
2022/09/18 01:13:43;;;;;;;9.38;1.15;;;9.80;99.90;;;;;;5024588;28;20049;-71
2022/09/18 01:16:21;;;;;;;10.02;1.33;;;9.80;99.90;;;;;;5060149;28;20079;-71
2022/09/18 01:19:16;;;;;;;11.90;1.40;;;9.80;99.90;;;;;;5007920;28;20056;-71
2022/09/18 01:21:52;;;;;;;10.07;1.27;;;9.90;99.90;;;;;;5022872;28;20057;-71
2022/09/18 01:24:41;;;;;;;10.93;1.40;;;9.90;99.90;;;;;;5025190;28;20064;-71
2022/09/18 01:27:11;;;;;;;9.27;1.42;;;9.90;99.90;;;;;;5038748;28;20045;-70
2022/09/18 01:29:45;;;;;;;11.18;1.50;;;9.90;99.90;;;;;;5043116;28;20091;-71
2022/09/18 01:32:31;;;;;;;7.80;1.15;;;9.90;99.90;;;;;;5037938;28;20041;-71
2022/09/18 01:35:06;;;;;;;12.23;1.40;;;9.90;99.90;;;;;;5007109;28;20034;-71
2022/09/18 01:37:52;;;;;;;10.05;1.40;;;9.90;99.90;;;;;;5052557;28;20046;-71
2022/09/18 01:40:24;;;;;;;8.85;1.42;;;10.00;99.90;;;;;;5022971;28;20051;-71
2022/09/18 01:42:54;;;;;;;13.13;1.42;;;9.90;99.90;;;;;;5024778;28;20076;-71
2022/09/18 01:45:27;;;;;;;13.95;1.63;;;10.30;99.90;;;;;;5022295;28;20049;-71
2022/09/18 01:48:07;;;;;;;9.35;1.48;;;9.90;99.90;;;;;;5021153;28;20080;-71
2022/09/18 01:50:38;;;;;;;12.30;1.33;;;10.00;99.90;;;;;;5056041;28;20552;-71
2022/09/18 01:53:07;;;;;;;;;;;10.00;99.90;;;;;;5009167;28;20199;-70
2022/09/18 01:55:34;;;;;;;13.57;1.38;;;10.00;99.90;;;;;;5023684;28;19921;-70
2022/09/18 01:58:10;;;;;;;14.18;1.73;;;10.20;99.90;;;;;;5023279;28;20044;-70
2022/09/18 02:00:38;;;;;;;9.57;1.15;;;10.00;99.90;;;;;;5036519;28;20080;-71
2022/09/18 02:03:12;;;;;;;9.68;1.40;;;9.90;99.90;;;;;;5026380;28;20045;-70
2022/09/18 02:06:01;;;;;;;5.85;1.10;;;10.00;99.90;;;;;;5023538;28;20053;-71
2022/09/18 02:08:44;;;;;;;10.48;1.40;;;10.00;99.90;;;;;;5025945;28;20414;-70
2022/09/18 02:11:12;;;;;;;9.38;1.10;;;10.00;99.90;;;;;;5023317;28;20056;-70
2022/09/18 02:14:02;;;;;;;10.85;1.23;;;10.00;99.90;;;;;;5026259;28;20777;-71
2022/09/18 02:16:34;;;;;;;12.52;1.50;;;10.00;99.90;;;;;;5021664;28;20099;-73
2022/09/18 02:19:09;;;;;;;11.45;1.77;;;10.00;99.90;;;;;;5039847;28;20472;-70
2022/09/18 02:21:35;;;;;;;11.25;1.52;;;10.30;99.90;;;;;;5006560;28;20053;-70
2022/09/18 02:24:08;;;;;;;8.82;1.20;;;10.00;99.90;;;;;;5025919;28;20042;-70
2022/09/18 02:26:36;;;;;;;11.23;1.45;;;10.10;99.90;;;;;;5023578;28;20045;-70
2022/09/18 02:29:03;;;;;;;15.20;2.30;;;10.00;99.90;;;;;;5023393;28;20044;-70
2022/09/18 02:31:29;;;;;;;8.60;1.27;;;10.40;99.90;;;;;;5006128;28;20057;-70
2022/09/18 02:33:55;;;;;;;5.97;1.10;;;10.00;99.90;;;;;;5037337;28;20060;-70
2022/09/18 02:36:33;;;;;;;10.20;1.80;;;10.10;99.90;;;;;;5057207;28;20045;-70
2022/09/18 02:39:14;;;;;;;11.02;1.63;;;10.10;99.90;;;;;;5056645;28;20057;-70
2022/09/18 02:41:45;;;;;;;;;;;10.10;99.90;;;;;;5024512;28;20041;-70
2022/09/18 02:44:26;;;;;;;13.80;1.73;;;10.10;99.90;;;;;;5039101;28;19932;-70
2022/09/18 02:47:03;;;;;;;12.88;1.65;;;10.10;99.90;;;;;;5039452;28;20045;-70
2022/09/18 02:49:29;;;;;;;11.82;2.08;;;10.00;99.90;;;;;;5039034;28;20049;-70
2022/09/18 02:52:04;;;;;;;7.82;1.63;;;10.10;99.90;;;;;;5007216;28;20077;-70
2022/09/18 02:54:39;;;;;;;11.00;1.67;;;10.10;99.90;;;;;;5009110;28;20406;-70
2022/09/18 02:57:17;;;;;;;12.65;1.55;;;10.10;99.90;;;;;;5004330;28;20569;-70
2022/09/18 02:59:52;;;;;;;8.30;1.75;;;10.10;99.90;;;;;;5023467;28;20048;-70
2022/09/18 03:02:21;;;;;;;14.70;1.85;;;10.10;99.90;;;;;;5057399;28;20052;-70
2022/09/18 03:04:48;;;;;;;14.35;1.73;;;10.10;99.90;;;;;;5055865;28;20053;-70
2022/09/18 03:07:15;;;;;;;11.50;1.38;;;10.10;99.90;;;;;;5024881;28;20048;-70
2022/09/18 03:09:41;;;;;;;9.35;1.20;;;10.10;99.90;;;;;;5020881;28;20413;-70
2022/09/18 03:12:07;;;;;;;14.98;1.98;;;10.00;99.90;;;;;;5023992;28;20404;-69
2022/09/18 03:14:34;;;;;;;13.23;2.10;;;10.10;99.90;;;;;;5021720;28;20080;-69
2022/09/18 03:17:00;;;;;;;7.35;1.17;;;10.10;99.90;;;;;;5021219;28;20133;-70
2022/09/18 03:19:26;;;;;;;8.00;1.38;;;10.10;99.90;;;;;;5054302;28;20087;-70
2022/09/18 03:21:52;;;;;;;10.55;1.48;;;10.40;99.90;;;;;;5038565;28;20459;-69
2022/09/18 03:24:24;;;;;;;6.30;1.48;;;10.10;99.90;;;;;;5037223;28;20049;-69
2022/09/18 03:26:52;;;;;;;11.15;1.15;;;10.10;99.90;;;;;;5024308;28;20049;-70
2022/09/18 03:29:17;;;;;;;6.03;1.80;;;10.30;99.90;;;;;;5026136;28;20072;-70
2022/09/18 03:31:43;;;;;;;7.80;1.52;;;10.10;99.90;;;;;;5028129;28;20065;-69
2022/09/18 03:34:09;;;;;;;9.73;1.48;;;10.10;99.90;;;;;;5009317;28;20044;-69
2022/09/18 03:36:35;;;;;;;10.50;1.13;;;10.10;99.90;;;;;;5025862;28;20076;-70
2022/09/18 03:39:01;;;;;;;5.43;0.95;;;10.10;99.90;;;;;;5027038;28;20033;-70
2022/09/18 03:41:27;;;;;;;9.18;1.45;;;10.10;99.90;;;;;;5044052;28;20111;-70
2022/09/18 03:43:52;;;;;;;11.63;1.42;;;10.00;99.90;;;;;;5043517;28;20132;-70
2022/09/18 03:46:22;;;;;;;8.82;1.02;;;10.10;99.90;;;;;;5042305;28;20413;-71
2022/09/18 03:48:52;;;;;;;7.60;0.95;;;10.00;99.90;;;;;;5026822;28;20049;-69
2022/09/18 03:51:18;;;;;;;8.45;1.10;;;10.10;99.90;;;;;;5028609;28;20045;-70
2022/09/18 03:53:45;;;;;;;5.50;1.10;;;10.10;99.90;;;;;;5009216;28;20052;-70
2022/09/18 03:56:12;;;;;;;8.63;0.93;;;10.10;99.90;;;;;;5024078;28;20690;-70
2022/09/18 03:58:37;;;;;;;4.22;0.88;;;10.10;99.90;;;;;;5028653;28;20029;-69
2022/09/18 04:01:03;;;;;;;9.82;1.08;;;10.10;99.90;;;;;;5022725;28;20048;-70
2022/09/18 04:03:29;;;;;;;5.13;0.90;;;10.10;99.90;;;;;;5024303;28;20390;-70
2022/09/18 04:05:55;;;;;;;6.57;0.95;;;10.20;99.90;;;;;;5042412;28;20053;-70
2022/09/18 04:08:21;;;;;;;6.28;1.08;;;10.10;99.90;;;;;;5010320;28;20037;-70
2022/09/18 04:10:47;;;;;;;9.27;1.20;;;10.10;99.90;;;;;;5009088;28;20277;-70
2022/09/18 04:13:14;;;;;;;5.63;0.93;;;10.00;99.90;;;;;;5027318;28;20049;-69
2022/09/18 04:15:40;;;;;;;7.55;1.00;;;10.10;99.90;;;;;;5042343;28;20141;-69
2022/09/18 04:18:05;;;;;;;5.13;0.90;;;10.10;99.90;;;;;;5009613;28;20132;-70
2022/09/18 04:20:31;;;;;;;7.15;0.75;;;10.10;99.90;;;;;;5025843;28;20391;-70
2022/09/18 04:22:57;;;;;;;9.80;1.45;;;10.00;99.90;;;;;;5027849;28;20589;-69
2022/09/18 04:25:23;;;;;;;9.00;1.50;;;10.10;99.90;;;;;;5024527;28;20144;-69
2022/09/18 04:27:48;;;;;;;6.35;0.88;;;10.20;99.90;;;;;;5027796;28;20052;-69
2022/09/18 04:30:14;;;;;;;9.63;0.90;;;10.10;99.90;;;;;;5008338;28;20037;-70
2022/09/18 04:32:41;;;;;;;4.30;1.08;;;10.10;99.90;;;;;;5026581;28;20045;-69
2022/09/18 04:35:07;;;;;;;7.70;0.88;;;10.00;99.90;;;;;;5025100;28;20060;-69
2022/09/18 04:37:33;;;;;;;10.10;1.70;;;10.00;99.90;;;;;;5042279;28;20650;-69
2022/09/18 04:39:58;;;;;;;7.05;1.00;;;10.10;99.90;;;;;;5058917;28;20095;-69
2022/09/18 04:42:24;;;;;;;11.10;1.10;;;10.10;99.90;;;;;;5025394;28;20832;-69
2022/09/18 04:44:50;;;;;;;9.38;1.10;;;10.00;99.90;;;;;;5027436;28;20053;-69
2022/09/18 04:47:15;;;;;;;5.88;1.15;;;10.10;99.90;;;;;;5027637;28;20037;-69
2022/09/18 04:49:41;;;;;;;8.23;0.90;;;10.00;99.90;;;;;;5057037;28;20060;-69
2022/09/18 04:52:07;;;;;;;12.20;1.23;;;10.10;99.90;;;;;;5024770;28;20067;-69
2022/09/18 04:54:32;;;;;;;9.48;0.95;;;10.10;99.90;;;;;;5025039;28;20034;-69
2022/09/18 04:56:58;;;;;;;11.35;1.10;;;10.10;99.90;;;;;;5025979;28;20358;-69
2022/09/18 04:59:24;;;;;;;11.57;1.00;;;10.10;99.90;;;;;;5027460;28;20041;-69
2022/09/18 05:01:49;;;;;;;6.40;0.88;;;10.10;99.90;;;;;;5026356;28;20514;-69
2022/09/18 05:04:15;;;;;;;12.35;1.50;;;10.10;99.90;;;;;;5026182;28;20041;-69
2022/09/18 05:06:41;;;;;;;10.43;1.38;;;10.10;99.90;;;;;;5024488;28;20034;-69
2022/09/18 05:09:06;;;;;;;11.35;1.27;;;10.10;99.90;;;;;;5044304;28;20037;-69
2022/09/18 05:11:32;;;;;;;7.13;1.13;;;10.20;99.90;;;;;;5023465;28;20041;-69
2022/09/18 05:13:58;;;;;;;10.68;2.05;;;10.10;99.90;;;;;;5027210;28;20133;-69
2022/09/18 05:16:24;;;;;;;7.25;0.85;;;10.20;99.90;;;;;;5024902;28;20068;-70
2022/09/18 05:18:51;;;;;;;9.00;1.13;;;10.20;99.90;;;;;;5026883;28;20061;-69
2022/09/18 05:21:17;;;;;;;11.48;1.50;;;10.20;99.90;;;;;;5025782;28;20045;-69
2022/09/18 05:23:44;;;;;;;4.95;1.10;;;10.30;99.90;;;;;;5025115;28;20124;-69
2022/09/18 05:26:11;;;;;;;7.43;1.17;;;10.20;99.90;;;;;;5025110;28;20449;-69
2022/09/18 05:28:37;;;;;;;6.57;1.20;;;10.20;99.90;;;;;;5027685;28;20077;-69
2022/09/18 05:31:03;;;;;;;6.97;0.90;;;10.40;99.90;;;;;;5026228;28;20502;-70
2022/09/18 05:33:29;;;;;;;7.13;1.00;;;10.20;99.90;;;;;;5025739;28;20080;-69
2022/09/18 05:35:56;;;;;;;4.65;1.30;;;10.30;99.90;;;;;;5058479;28;20336;-69
2022/09/18 05:38:25;;;;;;;8.35;1.45;;;10.30;99.90;;;;;;5022071;28;20441;-69
2022/09/18 05:40:51;;;;;;;7.57;1.05;;;10.30;99.90;;;;;;5025558;28;20057;-69
2022/09/18 05:43:17;;;;;;;13.05;0.95;;;10.40;99.90;;;;;;5024669;28;20406;-69
2022/09/18 05:45:43;;;;;;;8.15;1.27;;;10.30;99.90;;;;;;5038866;28;20660;-69
2022/09/18 05:48:12;;;;;;;9.90;1.25;;;10.30;99.90;;;;;;5028012;28;20041;-70
2022/09/18 05:50:39;;;;;;;8.48;1.25;;;10.30;99.90;;;;;;5039399;28;20050;-69
2022/09/18 05:53:07;;;;;;;9.25;1.10;;;10.30;99.90;;;;;;5006941;28;20092;-69
2022/09/18 05:55:33;;;;;;;8.18;1.15;;;10.30;99.90;;;;;;5008145;28;20406;-69
2022/09/18 05:58:01;;;;;;;8.23;1.00;;;10.30;99.90;;;;;;5022958;28;20136;-69
2022/09/18 06:00:28;;;;;;;8.55;1.05;;;10.30;99.90;;;;;;5005551;28;20518;-69
2022/09/18 06:02:59;;;;;;;11.57;1.10;;;10.30;99.90;;;;;;5040573;28;20049;-69
2022/09/18 06:05:27;;;;;;;10.77;1.35;;;10.30;99.90;;;;;;5009323;28;20414;-69
2022/09/18 06:07:52;;;;;;;9.98;1.60;;;10.30;99.90;;;;;;5035428;28;20409;-69
2022/09/18 06:10:21;;;;;;;10.25;1.33;;;10.40;99.90;;;;;;5025811;28;20120;-69
2022/09/18 06:12:47;;;;;;;10.05;1.40;;;10.40;99.90;;;;;;5018239;28;20042;-69
2022/09/18 06:15:14;;;;;;;11.77;1.20;;;10.40;99.90;;;;;;5015247;28;20042;-70
2022/09/18 06:17:40;;;;;;;20.52;2.17;;;10.40;99.90;;;;;;5022369;28;20115;-69
2022/09/18 06:20:07;;;;;;;8.57;1.40;;;10.40;99.90;;;;;;5017811;28;20050;-69
2022/09/18 06:22:34;;;;;;;7.82;1.42;;;10.40;99.90;;;;;;5020514;28;20051;-69
2022/09/18 06:25:00;;;;;;;10.68;1.60;;;10.40;99.90;;;;;;5007137;28;20045;-69
2022/09/18 06:27:26;;;;;;;11.55;1.10;;;10.40;99.90;;;;;;5017973;28;20516;-69
2022/09/18 06:29:52;;;;;;;9.50;0.82;;;10.50;99.90;;;;;;5024624;28;20124;-69
2022/09/18 06:32:19;;;;;;;6.25;0.70;;;10.40;99.90;;;;;;5008762;28;20438;-69
2022/09/18 06:34:45;;;;;;;6.00;1.02;;;10.50;99.90;;;;;;5023594;28;20042;-69
2022/09/18 06:37:12;;;;;;;6.88;1.05;;;10.50;99.90;;;;;;5035126;28;20111;-69
2022/09/18 06:39:38;;;;;;;6.93;0.90;;;10.50;99.90;;;;;;5022183;28;20045;-69
2022/09/18 06:42:04;;;;;;;6.07;0.80;;;10.80;99.90;;;;;;4993002;28;20418;-70
2022/09/18 06:44:30;;;;;;;6.50;0.95;;;10.50;99.90;;;;;;5024671;28;20053;-70
2022/09/18 06:46:56;;;;;;;8.07;0.80;;;10.50;99.90;;;;;;5000248;28;20052;-70
2022/09/18 06:49:22;;;;;;;7.38;1.25;;;10.50;99.90;;;;;;5003122;28;20045;-69
2022/09/18 06:51:47;;;;;;;5.18;0.90;;;10.50;99.90;;;;;;5027337;28;20053;-70
2022/09/18 06:54:14;;;;;;;4.93;0.73;;;10.50;99.90;;;;;;5008153;28;20045;-69
2022/09/18 06:56:40;;;;;;;5.07;0.80;;;10.50;99.90;;;;;;5007676;28;20505;-69
2022/09/18 06:59:06;;;;;;;4.90;1.02;;;10.50;99.90;;;;;;5003004;28;20053;-69
2022/09/18 07:01:32;;;;;;;9.65;1.45;;;10.50;99.90;;;;;;5023980;28;20049;-69
2022/09/18 07:03:58;;;;;;;7.18;1.00;;;10.60;99.90;;;;;;5014017;28;20045;-69
2022/09/18 07:06:23;;;;;;;8.23;1.30;;;10.50;99.90;;;;;;5012559;28;20374;-69
2022/09/18 07:08:49;;;;;;;9.20;1.15;;;10.60;99.90;;;;;;5023196;28;20414;-69
2022/09/18 07:11:15;;;;;;;8.45;1.20;;;10.60;99.90;;;;;;5024873;28;20496;-69
2022/09/18 07:13:41;;;;;;;5.53;0.95;;;10.60;99.90;;;;;;5007216;28;20092;-69
2022/09/18 07:16:07;;;;;;;5.65;0.93;;;10.60;99.90;;;;;;5023149;28;20104;-69
2022/09/18 07:18:33;;;;;;;10.98;1.50;;;10.60;99.90;;;;;;5005391;28;20057;-69
2022/09/18 07:20:59;;;;;;;10.35;1.33;;;10.60;99.90;;;;;;5004783;28;20057;-69
2022/09/18 07:23:26;;;;;;;13.57;1.30;;;10.60;99.90;;;;;;5008321;28;20036;-69
2022/09/18 07:25:52;;;;;;;9.05;1.60;;;10.70;99.90;;;;;;5012853;28;20502;-69
2022/09/18 07:28:18;;;;;;;5.82;1.30;;;10.70;99.90;;;;;;5006778;28;20042;-69
2022/09/18 07:30:44;;;;;;;7.53;1.40;;;10.60;99.90;;;;;;5025484;28;20517;-68
2022/09/18 07:33:09;;;;;;;6.68;1.30;;;10.70;99.90;;;;;;5008823;28;20395;-69
2022/09/18 07:35:35;;;;;;;8.77;1.20;;;10.70;99.90;;;;;;5003077;28;20068;-69
2022/09/18 07:38:04;;;;;;;11.88;1.73;;;10.70;99.90;;;;;;5006313;28;20753;-69
2022/09/18 07:40:31;;;;;;;9.00;1.15;;;10.70;99.90;;;;;;5015400;28;20037;-68
2022/09/18 07:43:05;;;;;;;10.00;1.45;;;10.60;99.90;;;;;;5016887;28;20038;-70
2022/09/18 07:45:30;;;;;;;10.05;1.42;;;10.60;99.90;;;;;;5020058;28;20136;-69
2022/09/18 07:47:59;;;;;;;10.48;1.63;;;10.70;99.90;;;;;;5021489;28;20131;-69
2022/09/18 07:50:24;;;;;;;8.80;1.67;;;10.70;99.90;;;;;;5013931;28;20403;-70
2022/09/18 07:52:56;;;;;;;9.45;1.40;;;10.70;99.90;;;;;;5012341;28;20099;-69
2022/09/18 07:55:23;;;;;;;9.02;1.33;;;10.70;99.90;;;;;;5014994;28;20049;-69
2022/09/18 07:57:58;;;;;;;10.30;1.13;;;10.70;99.90;;;;;;5020572;28;20791;-69
2022/09/18 08:00:25;;;;;;;9.40;1.02;;;10.70;99.90;;;;;;5015012;28;20042;-69
2022/09/18 08:03:07;;;;;;;8.30;1.67;;;10.70;99.90;;;;;;5026229;28;20119;-70
2022/09/18 08:05:33;;;;;;;6.88;1.00;;;10.80;99.90;;;;;;5038832;28;20037;-69
2022/09/18 08:08:11;;;;;;;8.75;1.35;;;10.80;99.90;;;;;;5003398;28;21040;-69
2022/09/18 08:10:38;;;;;;;7.85;1.15;;;10.80;99.90;;;;;;5042080;28;20057;-70
2022/09/18 08:13:05;;;;;;;4.65;1.30;;;10.80;99.90;;;;;;5031479;28;20045;-70
2022/09/18 08:15:32;;;;;;;8.63;1.25;;;10.90;99.90;;;;;;5022469;28;20084;-70
2022/09/18 08:17:59;;;;;;;7.55;1.17;;;10.80;99.90;;;;;;5020022;28;20505;-69
2022/09/18 08:20:25;;;;;;;7.57;1.33;;;10.80;99.90;;;;;;5052800;28;20437;-70
2022/09/18 08:22:51;;;;;;;10.35;1.30;;;10.80;99.90;;;;;;5022487;28;20061;-69
2022/09/18 08:25:16;;;;;;;4.95;1.10;;;10.90;99.90;;;;;;5023767;28;20041;-69
2022/09/18 08:27:42;;;;;;;6.05;1.10;;;10.80;99.90;;;;;;5006865;28;20052;-70
2022/09/18 08:30:10;;;;;;;5.50;1.10;;;10.80;99.90;;;;;;5024247;28;20789;-70
2022/09/18 08:32:36;;;;;;;11.40;1.27;;;10.80;99.90;;;;;;5040080;28;20052;-70
2022/09/18 08:35:03;;;;;;;8.82;1.42;;;10.80;99.90;;;;;;5052774;28;20938;-70
2022/09/18 08:37:30;;;;;;;8.73;1.30;;;10.80;99.90;;;;;;5023690;28;20576;-70
2022/09/18 08:39:56;;;;;;;4.57;1.00;;;10.80;99.90;;;;;;5039497;28;20049;-70
2022/09/18 08:42:40;;;;;;;8.13;1.50;;;10.80;99.90;;;;;;5034974;28;20060;-70
2022/09/18 08:45:36;;;;;;;11.48;1.67;;;10.80;99.90;;;;;;5027059;28;20079;-70
2022/09/18 08:48:13;;;;;;;7.85;1.10;;;10.80;99.90;;;;;;5036822;28;20521;-70
2022/09/18 08:50:42;;;;;;;11.18;1.60;;;10.80;99.90;;;;;;5009223;28;20399;-70
2022/09/18 08:53:21;;;;;;;10.93;1.55;;;10.80;99.90;;;;;;5038683;28;20534;-70
2022/09/18 08:55:51;;;;;;;7.25;1.25;;;10.80;99.90;;;;;;5019588;28;20396;-71
2022/09/18 08:58:23;;;;;;;8.20;1.20;;;10.80;99.90;;;;;;5036411;28;20501;-75
2022/09/18 09:00:53;;;;;;;7.68;1.00;;;10.80;99.90;;;;;;5017468;28;20612;-77
2022/09/18 09:03:25;;;;;;;9.43;1.30;;;10.80;99.90;;;;;;5027862;28;20046;-76
2022/09/18 09:06:03;;;;;;;7.85;1.13;;;10.80;99.90;;;;;;5032743;28;20053;-70
2022/09/18 09:08:49;;;;;;;10.27;1.52;;;10.80;99.90;;;;;;5039042;28;20059;-70
2022/09/18 09:11:26;;;;;;;7.20;1.02;;;10.80;99.90;;;;;;5016979;28;20029;-70
2022/09/18 09:14:18;;;;;;;10.02;1.30;;;10.80;99.90;;;;;;5049828;28;20417;-69
2022/09/18 09:16:44;;;;;;;6.45;1.00;;;10.80;99.90;;;;;;5034693;28;20041;-71
2022/09/18 09:19:44;;;;;;;8.45;1.33;;;10.70;99.90;;;;;;5016295;28;20421;-76
2022/09/18 09:22:13;;;;;;;8.25;1.40;;;10.70;99.90;;;;;;5050880;28;20056;-72
2022/09/18 09:24:45;;;;;;;8.60;1.33;;;10.70;99.90;;;;;;5035945;28;20029;-75
2022/09/18 09:27:26;;;;;;;10.73;1.23;;;10.70;99.90;;;;;;5017147;28;20033;-70
2022/09/18 09:30:00;;;;;;;7.78;1.52;;;10.70;99.90;;;;;;5040248;28;20045;-69
2022/09/18 09:32:39;;;;;;;7.05;1.63;;;10.70;99.90;;;;;;5028636;28;20056;-69
2022/09/18 09:35:20;;;;;;;9.85;1.52;;;10.70;99.90;;;;;;5023648;28;20046;-70
2022/09/18 09:37:47;;;;;;;8.45;1.58;;;10.70;99.90;;;;;;5025782;28;20053;-76
2022/09/18 09:40:31;;;;;;;8.52;1.60;;;10.60;99.90;;;;;;5021933;28;20076;-70
2022/09/18 09:43:09;;;;;;;9.27;1.55;;;10.70;99.90;;;;;;5038835;28;20045;-70
2022/09/18 09:45:57;;;;;;;8.20;1.60;;;10.70;99.90;;;;;;5039211;28;20050;-76
2022/09/18 09:48:33;;;;;;;6.75;1.70;;;10.60;99.90;;;;;;5014443;28;20529;-77
2022/09/18 09:51:15;;;;;;;7.13;1.85;;;10.70;99.90;;;;;;5022625;28;20045;-76
2022/09/18 09:53:41;;;;;;;11.10;1.40;;;10.70;99.90;;;;;;5042935;28;20560;-75
2022/09/18 09:56:31;;;;;;;8.18;1.33;;;10.70;99.90;;;;;;5032062;28;20167;-75
2022/09/18 09:59:20;;;;;;;7.20;1.30;;;10.80;99.90;;;;;;5028417;28;20095;-76
2022/09/18 10:01:57;;;;;;;8.90;1.63;;;10.80;99.90;;;;;;5030551;28;20279;-76
2022/09/18 10:04:36;;;;;;;5.20;1.00;;;10.80;99.90;;;;;;5021981;28;20059;-75
2022/09/18 10:07:24;;;;;;;9.55;1.05;;;10.80;99.90;;;;;;5038102;28;20131;-76
2022/09/18 10:09:52;;;;;;;7.45;1.30;;;10.80;99.90;;;;;;5024255;28;20623;-76
2022/09/18 10:12:38;;;;;;;12.13;1.92;;;10.80;99.90;;;;;;5006285;28;20410;-75
2022/09/18 10:15:19;;;;;;;10.00;2.60;;;10.80;99.90;;;;;;5017771;28;20042;-75
2022/09/18 10:17:49;;;;;;;15.13;1.65;;;10.90;99.90;;;;;;5050312;28;20479;-76
2022/09/18 10:20:20;;;;;;;10.10;1.67;;;10.90;99.90;;;;;;5020333;28;20099;-76
2022/09/18 10:22:46;;;;;;;9.20;1.47;;;10.90;99.90;;;;;;5003340;28;20061;-76
2022/09/18 10:25:37;;;;;;;9.27;1.55;;;11.00;99.90;;;;;;5024680;28;20057;-76
2022/09/18 10:28:03;;;;;;;12.23;1.60;;;11.00;99.90;;;;;;5031314;28;20041;-75
2022/09/18 10:30:28;;;;;;;15.23;1.80;;;11.10;99.90;;;;;;5011869;28;20042;-76
2022/09/18 10:32:54;;;;;;;12.32;1.63;;;11.00;99.90;;;;;;5026809;28;20053;-75
2022/09/18 10:35:29;;;;;;;10.57;1.48;;;11.10;99.90;;;;;;5013829;28;20069;-76
2022/09/18 10:37:55;;;;;;;10.70;1.52;;;11.10;99.90;;;;;;5053095;28;20524;-76
2022/09/18 10:40:38;;;;;;;15.95;1.40;;;11.20;99.90;;;;;;5028675;28;20049;-76
2022/09/18 10:43:06;;;;;;;13.00;1.60;;;11.30;99.90;;;;;;5042889;28;20390;-77
2022/09/18 10:45:40;;;;;;;15.50;2.08;;;11.20;99.90;;;;;;5038775;28;20529;-75
2022/09/18 10:48:16;;;;;;;11.88;1.90;;;11.30;99.90;;;;;;5010613;28;20638;-77
2022/09/18 10:50:59;;;;;;;10.73;1.42;;;11.30;99.90;;;;;;5022370;28;20076;-76
2022/09/18 10:53:33;;;;;;;10.50;1.27;;;11.40;99.90;;;;;;5029807;28;20076;-76
2022/09/18 10:56:18;;;;;;;9.10;1.65;;;11.40;99.90;;;;;;5009642;28;20045;-76
2022/09/18 10:58:44;;;;;;;10.43;1.50;;;11.50;99.90;;;;;;5003144;28;20114;-77
2022/09/18 11:01:11;;;;;;;10.80;1.50;;;11.50;99.90;;;;;;5017716;28;20049;-76
2022/09/18 11:03:46;;;;;;;12.73;1.70;;;11.60;99.90;;;;;;5032332;28;20052;-76
2022/09/18 11:06:24;;;;;;;15.98;2.08;;;11.70;99.90;;;;;;5032871;28;20064;-76
2022/09/18 11:09:00;;;;;;;17.10;1.75;;;11.70;99.90;;;;;;5033223;28;20053;-76
2022/09/18 11:11:34;;;;;;;12.50;1.60;;;11.80;99.90;;;;;;5002676;28;21538;-77
2022/09/18 11:14:04;;;;;;;;;;;11.80;99.90;;;;;;5014969;28;20085;-77
2022/09/18 11:16:53;;;;;;;17.25;1.83;;;11.80;99.90;;;;;;5047618;28;20542;-77
2022/09/18 11:19:25;;;;;;;14.07;1.60;;;11.90;99.90;;;;;;5032679;28;20060;-77
2022/09/18 11:21:55;;;;;;;13.13;1.63;;;12.00;99.90;;;;;;5032814;28;20420;-77
2022/09/18 11:24:24;;;;;;;11.45;1.98;;;12.00;99.90;;;;;;5010984;28;20103;-76
2022/09/18 11:26:56;;;;;;;11.75;2.15;;;12.00;99.90;;;;;;5014171;28;20069;-76
2022/09/18 11:29:23;;;;;;;;;;;12.10;99.90;;;;;;5016546;28;20103;-76
2022/09/18 11:32:14;;;;;;;11.27;1.70;;;12.10;99.90;;;;;;5016452;28;19925;-77
2022/09/18 11:34:47;;;;;;;12.13;1.48;;;12.20;99.90;;;;;;5017368;28;20152;-77
2022/09/18 11:37:22;;;;;;;11.45;1.33;;;12.20;99.90;;;;;;5017467;28;20045;-77
2022/09/18 11:39:54;;;;;;;7.35;1.17;;;12.20;99.90;;;;;;5047699;28;20057;-76
2022/09/18 11:42:20;;;;;;;8.00;1.20;;;12.30;99.90;;;;;;5015812;28;20511;-77
2022/09/18 11:44:46;;;;;;;9.73;1.52;;;12.40;99.90;;;;;;5015940;28;20050;-77
2022/09/18 11:47:15;;;;;;;9.30;1.10;;;12.30;99.90;;;;;;5016546;28;20698;-76
2022/09/18 11:49:57;;;;;;;10.20;1.10;;;12.40;99.90;;;;;;5033752;28;20109;-78
2022/09/18 11:52:30;;;;;;;11.70;1.73;;;12.40;99.90;;;;;;5020035;28;20819;-77
2022/09/18 11:55:33;;;;;;;9.48;1.85;;;12.40;99.90;;;;;;5020814;28;20123;-78
2022/09/18 11:58:08;;;;;;;9.80;1.15;;;12.40;99.90;;;;;;4995492;28;20068;-78
2022/09/18 12:00:51;;;;;;;11.15;1.50;;;12.40;99.90;;;;;;5017167;28;20085;-78
2022/09/18 12:03:35;;;;;;;8.82;1.38;;;12.40;99.90;;;;;;5018641;28;20053;-78
2022/09/18 12:06:22;;;;;;;10.98;1.20;;;12.40;99.90;;;;;;5018631;28;20430;-78
2022/09/18 12:09:14;;;;;;;6.78;1.20;;;12.50;99.90;;;;;;5012753;28;20127;-76
2022/09/18 12:11:48;;;;;;;6.80;0.90;;;12.50;99.90;;;;;;5017903;28;20060;-77
2022/09/18 12:14:44;;;;;;;11.52;1.40;;;12.50;99.90;;;;;;5049268;28;20375;-78
2022/09/18 12:17:45;;;;;;;5.97;0.98;;;12.60;99.90;;;;;;5001494;28;20970;-76
2022/09/18 12:20:26;;;;;;;7.88;1.10;;;12.60;99.90;;;;;;5017096;28;20041;-78
2022/09/18 12:22:57;;;;;;;10.32;1.25;;;12.60;99.90;;;;;;5051180;28;20049;-76
2022/09/18 12:26:03;;;;;;;10.45;1.20;;;12.60;99.90;;;;;;5016743;28;20358;-78
2022/09/18 12:28:52;;;;;;;9.82;0.95;;;12.60;99.90;;;;;;5004504;28;20119;-78
2022/09/18 12:31:27;;;;;;;6.90;1.40;;;12.60;99.90;;;;;;5052764;28;20049;-78
2022/09/18 12:34:12;;;;;;;6.63;1.48;;;12.60;99.90;;;;;;5019870;28;20130;-77
2022/09/18 12:37:13;;;;;;;7.97;1.00;;;12.60;99.90;;;;;;5018349;28;20513;-78
2022/09/18 12:40:03;;;;;;;12.98;1.48;;;12.60;99.90;;;;;;4998335;28;20057;-77
2022/09/18 12:42:38;;;;;;;10.87;1.03;;;12.80;99.90;;;;;;5019080;28;20422;-78
2022/09/18 12:45:41;;;;;;;5.65;1.20;;;12.70;99.90;;;;;;5049676;28;20057;-78
2022/09/18 12:48:18;;;;;;;8.13;1.05;;;12.70;99.90;;;;;;5017046;28;20380;-77
2022/09/18 12:51:12;;;;;;;7.88;1.33;;;12.70;99.90;;;;;;5019735;28;20071;-77
2022/09/18 12:53:51;;;;;;;12.30;1.40;;;12.80;99.90;;;;;;5018918;28;20510;-73
2022/09/18 12:56:42;;;;;;;8.90;1.40;;;12.80;99.90;;;;;;5031712;28;20056;-77
2022/09/18 12:59:40;;;;;;;6.63;1.40;;;12.90;99.90;;;;;;5011830;28;20048;-77
2022/09/18 13:02:34;;;;;;;13.50;1.52;;;12.90;99.90;;;;;;5011182;28;20080;-75
2022/09/18 13:05:02;;;;;;;10.40;1.75;;;12.90;99.90;;;;;;5020510;28;20111;-75
2022/09/18 13:07:34;;;;;;;7.93;1.20;;;12.90;99.90;;;;;;5018764;28;20053;-75
2022/09/18 13:10:03;;;;;;;9.77;1.40;;;12.90;99.90;;;;;;5014931;28;20597;-75